Dades meteomassalio
Diari Summary for Juliol 14, 2017 Units:  Metric    English   Both
« Previous Day
Next Day »
Diari Semanal Mensual Anual Personalitzat
  Maxima: Minima: Mijana:
Temperatura: -17.8 °C -6.6 °C -3.1 °C
Rosada: -17.8 °C -11.4 °C -10.1 °C
Humitat: Humidity % 32 % 47 %
Velocitat del vent: 0 km/h 0 km/h 9.7 km/h
Racha vent: 0 km/h - -
Vent:- - WSW
Pressio: 0 hPa 34327.3 hPa -
Pluja: 0 mm    
Historical Graphs
 
 
Tabular Data for Juliol 14, 2017
Time Temperature Dew Point Pressure Wind Wind Speed Wind Gust Humidity Rainfall Rate (Hourly) solar Conditions
-17.8 °C -17.8 °C 0 hPa Calm     Humidity % 0 mm SolarRadiationWatts/m^2 W/m2 Conditions
00:00 -1.6 °C -9.9 °C 34395 hPa WSW 5.1 km/h   40 % 0 mm 0.0 W/m2 CLR
00:05 -1.6 °C -9.9 °C 34405.1 hPa Calm     40 % 0 mm 0.0 W/m2 CLR
00:10 -1.7 °C -9.9 °C 34405.1 hPa Calm     40 % 0 mm 0.0 W/m2 CLR
00:15 -1.7 °C -9.8 °C 34405.1 hPa WSW 7.7 km/h   41 % 0 mm 0.0 W/m2 CLR
00:20 -1.8 °C -9.9 °C 34405.1 hPa WNW 20.9 km/h 20.9 km/h 41 % 0 mm 0.0 W/m2 CLR
00:25 -1.8 °C -9.9 °C 34405.1 hPa Calm     41 % 0 mm 0.0 W/m2 CLR
00:30 -1.9 °C -9.9 °C 34418.7 hPa WNW 23.8 km/h 23.8 km/h 41 % 0 mm 0.0 W/m2 CLR
00:35 -1.9 °C -10.1 °C 34418.7 hPa Calm     41 % 0 mm 0.0 W/m2 CLR
00:40 -2 °C -9.9 °C 34418.7 hPa Calm     42 % 0 mm 0.0 W/m2 CLR
00:45 -2.1 °C -9.9 °C 34418.7 hPa WSW 3.1 km/h   42 % 0 mm 0.0 W/m2 CLR
00:50 -2.1 °C -9.9 °C 34418.7 hPa West 23.8 km/h 23.8 km/h 42 % 0 mm 0.0 W/m2 CLR
00:55 -2.2 °C -9.8 °C 34418.7 hPa WSW 17.9 km/h 17.9 km/h 43 % 0 mm 0.0 W/m2 CLR
01:00 -2.3 °C -9.9 °C 34418.7 hPa West 20.9 km/h 20.9 km/h 43 % 0 mm 0.0 W/m2 CLR
01:05 -2.3 °C -9.8 °C 34418.7 hPa West 15 km/h 15 km/h 44 % 0 mm 0.0 W/m2 CLR
01:10 -2.4 °C -9.8 °C 34418.7 hPa West 15.6 km/h 15.6 km/h 44 % 0 mm 0.0 W/m2 CLR
01:15 -2.5 °C -9.9 °C 34418.7 hPa West 10.3 km/h 10.3 km/h 44 % 0 mm 0.0 W/m2 CLR
01:20 -2.6 °C -9.8 °C 34418.7 hPa Calm     45 % 0 mm 0.0 W/m2 CLR
01:25 -2.6 °C -9.8 °C 34418.7 hPa WNW 12.9 km/h 12.9 km/h 45 % 0 mm 0.0 W/m2 CLR
01:30 -2.7 °C -9.7 °C 34418.7 hPa NW 12.9 km/h 12.9 km/h 46 % 0 mm 0.0 W/m2 CLR
01:35 -2.8 °C -9.8 °C 34418.7 hPa WNW 20.9 km/h 20.9 km/h 46 % 0 mm 0.0 W/m2 CLR
01:40 -2.9 °C -9.7 °C 34428.8 hPa WNW 29.8 km/h 29.8 km/h 47 % 0 mm 0.0 W/m2 CLR
01:45 -3 °C -9.8 °C 34428.8 hPa Calm     47 % 0 mm 0.0 W/m2 CLR
01:50 -3.1 °C -9.8 °C 34428.8 hPa WNW 12.9 km/h 12.9 km/h 47 % 0 mm 0.0 W/m2 CLR
01:55 -3.2 °C -9.8 °C 34428.8 hPa NW 11.9 km/h 11.9 km/h 48 % 0 mm 0.0 W/m2 CLR
02:00 -3.2 °C -9.8 °C 34428.8 hPa NW 11.9 km/h 11.9 km/h 48 % 0 mm 0.0 W/m2 CLR
02:05 -3.3 °C -9.8 °C 34428.8 hPa NW 11.9 km/h 11.9 km/h 49 % 0 mm 0.0 W/m2 CLR
02:10 -3.4 °C -9.8 °C 34428.8 hPa NW 17.9 km/h 17.9 km/h 49 % 0 mm 0.0 W/m2 CLR
02:11 -3.4 °C -9.8 °C 34428.8 hPa NW 17.9 km/h 17.9 km/h 49 % 0 mm 0.0 W/m2 CLR
02:15 -3.6 °C -9.8 °C 34428.8 hPa West 9 km/h 9 km/h 50 % 0 mm 0.0 W/m2 CLR
02:21 -3.7 °C -9.8 °C 34428.8 hPa Calm     50 % 0 mm 0.0 W/m2 CLR
02:26 -3.7 °C -9.4 °C 34428.8 hPa Calm     53 % 0 mm 0.0 W/m2 CLR
02:31 -3.9 °C -9.6 °C 34428.8 hPa NNW 2.6 km/h 2.6 km/h 53 % 0 mm 0.0 W/m2 CLR
02:36 -4.1 °C -9.6 °C 34428.8 hPa NW 11.9 km/h 11.9 km/h 54 % 0 mm 0.0 W/m2 CLR
02:41 -4.2 °C -9.6 °C 34428.8 hPa Calm     55 % 0 mm 0.0 W/m2 CLR
02:46 -4.3 °C -9.9 °C 34428.8 hPa West 9 km/h 9 km/h 53 % 0 mm 0.0 W/m2 CLR
02:51 -4.3 °C -10.1 °C 34428.8 hPa West 9 km/h 9 km/h 52 % 0 mm 0.0 W/m2 CLR
02:56 -4.3 °C -10.1 °C 34428.8 hPa West 12.9 km/h 12.9 km/h 52 % 0 mm 0.0 W/m2 CLR
03:01 -4.3 °C -10.3 °C 34428.8 hPa West 11.9 km/h 11.9 km/h 51 % 0 mm 0.0 W/m2 CLR
03:06 -4.4 °C -10.2 °C 34428.8 hPa WNW 17.9 km/h 17.9 km/h 52 % 0 mm 0.0 W/m2 CLR
03:11 -4.4 °C -10.2 °C 34428.8 hPa WNW 9 km/h   52 % 0 mm 0.0 W/m2 CLR
03:16 -4.5 °C -10.3 °C 34428.8 hPa West 15 km/h 15 km/h 52 % 0 mm 0.0 W/m2 CLR
03:21 -4.6 °C -10.4 °C 34428.8 hPa WNW 9 km/h 9 km/h 52 % 0 mm 0.0 W/m2 CLR
03:26 -4.6 °C -10.4 °C 34428.8 hPa West 11.9 km/h 11.9 km/h 52 % 0 mm 0.0 W/m2 CLR
03:31 -4.7 °C -10.3 °C 34428.8 hPa Calm     53 % 0 mm 0.0 W/m2 CLR
03:36 -4.8 °C -10.6 °C 34428.8 hPa NW 9 km/h 9 km/h 52 % 0 mm 0.0 W/m2 CLR
03:41 -4.8 °C -10.4 °C 34428.8 hPa Calm     53 % 0 mm 0.0 W/m2 CLR
03:46 -4.8 °C -10.4 °C 34428.8 hPa Calm     53 % 0 mm 0.0 W/m2 CLR
03:51 -4.9 °C -10.3 °C 34428.8 hPa Calm     54 % 0 mm 0.0 W/m2 CLR
03:56 -4.9 °C -10.4 °C 34428.8 hPa Calm     54 % 0 mm 0.0 W/m2 CLR
04:01 -5.1 °C -10.5 °C 34442.4 hPa North 9 km/h 9 km/h 54 % 0 mm 0.0 W/m2 CLR
04:06 -5.1 °C -10.4 °C 34428.8 hPa Calm     55 % 0 mm 0.0 W/m2 CLR
04:11 -5.2 °C -10.3 °C 34428.8 hPa Calm     56 % 0 mm 0.0 W/m2 CLR
04:16 -5.3 °C -10.3 °C 34428.8 hPa Calm     57 % 0 mm 0.0 W/m2 CLR
04:21 -5.4 °C -10.4 °C 34428.8 hPa Calm     57 % 0 mm 0.0 W/m2 CLR
04:26 -5.6 °C -10.4 °C 34428.8 hPa Calm     58 % 0 mm 0.0 W/m2 CLR
04:31 -5.7 °C -10.3 °C 34428.8 hPa Calm     59 % 0 mm 0.0 W/m2 CLR
04:36 -5.7 °C -10.4 °C 34428.8 hPa Calm     59 % 0 mm 0.0 W/m2 CLR
04:41 -5.8 °C -10.3 °C 34442.4 hPa NW 10.3 km/h 10.3 km/h 60 % 0 mm 0.0 W/m2 CLR
04:46 -5.9 °C -10.4 °C 34428.8 hPa Calm     60 % 0 mm 0.0 W/m2 CLR
04:51 -5.9 °C -10.4 °C 34428.8 hPa Calm     60 % 0 mm 0.0 W/m2 CLR
04:56 -5.9 °C -10.4 °C 34428.8 hPa Calm     60 % 0 mm 0.0 W/m2 CLR
05:01 -5.9 °C -10.4 °C 34428.8 hPa Calm     60 % 0 mm 0.0 W/m2 CLR
05:06 -5.9 °C -10.4 °C 34428.8 hPa Calm     60 % 0 mm 0.0 W/m2 CLR
05:11 -6 °C -10.3 °C 34442.4 hPa Calm     61 % 0 mm 0.0 W/m2 CLR
05:16 -6 °C -10.4 °C 34442.4 hPa Calm     61 % 0 mm 0.0 W/m2 CLR
05:21 -6.1 °C -10.4 °C 34442.4 hPa Calm     61 % 0 mm 0.0 W/m2 CLR
05:26 -6.1 °C -10.4 °C 34442.4 hPa Calm     61 % 0 mm 0.0 W/m2 CLR
05:31 -6.1 °C -10.4 °C 34442.4 hPa Calm     61 % 0 mm 0.0 W/m2 CLR
05:36 -6.1 °C -10.3 °C 34442.4 hPa Calm     62 % 0 mm 0.0 W/m2 CLR
05:41 -6.2 °C -10.4 °C 34442.4 hPa West 7.7 km/h 7.7 km/h 62 % 0 mm 0.0 W/m2 CLR
05:46 -6.2 °C -10.5 °C 34442.4 hPa Calm     61 % 0 mm 0.0 W/m2 CLR
05:51 -6.2 °C -10.5 °C 34452.6 hPa Calm     61 % 0 mm 0.0 W/m2 CLR
05:56 -6.2 °C -10.5 °C 34452.6 hPa West 5.1 km/h 5.1 km/h 61 % 0 mm 0.0 W/m2 CLR
06:01 -6.2 °C -10.5 °C 34452.6 hPa WNW 15 km/h 15 km/h 61 % 0 mm 0.0 W/m2 CLR
06:06 -6.2 °C -10.5 °C 34452.6 hPa Calm     61 % 0 mm 0.0 W/m2 CLR
06:11 -6.2 °C -10.4 °C 34452.6 hPa Calm     62 % 0 mm 0.0 W/m2 CLR
06:16 -6.3 °C -10.4 °C 34452.6 hPa Calm     62 % 0 mm 0.0 W/m2 CLR
06:21 -6.3 °C -10.5 °C 34452.6 hPa Calm     62 % 0 mm 0.0 W/m2 CLR
06:26 -6.3 °C -10.5 °C 34452.6 hPa Calm     62 % 0 mm 0.0 W/m2 CLR
06:31 -6.4 °C -10.4 °C 34452.6 hPa Calm     63 % 0 mm 0.0 W/m2 OVC
06:36 -6.4 °C -10.5 °C 34462.7 hPa Calm     63 % 0 mm 0.0 W/m2 OVC
06:41 -6.5 °C -10.5 °C 34452.6 hPa Calm     63 % 0 mm 0.0 W/m2 OVC
06:46 -6.6 °C -10.4 °C 34452.6 hPa Calm     64 % 0 mm 5.0 W/m2 OVC
06:51 -6.6 °C -10.4 °C 34452.6 hPa Calm     64 % 0 mm 11.0 W/m2 BKN
06:56 -6.6 °C -10.5 °C 34452.6 hPa Calm     64 % 0 mm 14.0 W/m2 BKN
07:01 -6.6 °C -10.5 °C 34462.7 hPa Calm     64 % 0 mm 21.0 W/m2 BKN
07:06 -6.6 °C -10.5 °C 34462.7 hPa Calm     64 % 0 mm 28.0 W/m2 BKN
07:11 -6.6 °C -10.3 °C 34462.7 hPa Calm     65 % 0 mm 33.0 W/m2 BKN
07:12 -6.6 °C -10.3 °C 34462.7 hPa Calm     65 % 0 mm 33.0 W/m2 BKN
07:17 -6.6 °C -10.5 °C 34462.7 hPa Calm     64 % 0 mm 39.0 W/m2 BKN
07:22 -6.6 °C -10.4 °C 34462.7 hPa Calm     64 % 0 mm 46.0 W/m2 SCT
07:27 -6.5 °C -10.4 °C 34462.7 hPa Calm     64 % 0 mm 56.0 W/m2 SCT
07:32 -6.4 °C -10.4 °C 34462.7 hPa Calm     64 % 0 mm 67.0 W/m2 FEW
07:37 -6.4 °C -10.3 °C 34462.7 hPa Calm     64 % 0 mm 77.0 W/m2 FEW
07:42 -6.4 °C -10.3 °C 34462.7 hPa Calm     64 % 0 mm 84.0 W/m2 FEW
07:47 -6.4 °C -10.3 °C 34462.7 hPa Calm     64 % 0 mm 90.0 W/m2 FEW
07:52 -6.4 °C -10.3 °C 34462.7 hPa Calm     64 % 0 mm 76.0 W/m2 FEW
07:57 -6.3 °C -10.3 °C 34462.7 hPa NNW 7.7 km/h 7.7 km/h 64 % 0 mm 116.0 W/m2 FEW
08:02 -6.3 °C -10.5 °C 34462.7 hPa North 18.2 km/h 18.2 km/h 62 % 0 mm 88.0 W/m2 CLR
08:07 -6.3 °C -10.5 °C 34476.3 hPa NW 17.9 km/h 17.9 km/h 62 % 0 mm 142.0 W/m2 CLR
08:12 -6.3 °C -10.4 °C 34476.3 hPa Calm     62 % 0 mm 111.0 W/m2 CLR
08:17 -6.2 °C -10.4 °C 34476.3 hPa WNW 11.9 km/h 11.9 km/h 62 % 0 mm 179.0 W/m2 CLR
08:22 -6.2 °C -10.4 °C 34476.3 hPa WNW 11.9 km/h 11.9 km/h 62 % 0 mm 107.0 W/m2 CLR
08:27 -6.2 °C -10.4 °C 34476.3 hPa Calm     62 % 0 mm 221.0 W/m2 CLR
08:32 -6.2 °C -10.5 °C 34476.3 hPa NW 18.2 km/h 18.2 km/h 61 % 0 mm 111.0 W/m2 CLR
08:37 -6.2 °C -10.4 °C 34476.3 hPa NNW 23.8 km/h 23.8 km/h 62 % 0 mm 141.0 W/m2 CLR
08:42 -6.2 °C -10.3 °C 34476.3 hPa NW 23.8 km/h 23.8 km/h 62 % 0 mm 271.0 W/m2 CLR
08:47 -6 °C -10.4 °C 34476.3 hPa NNW 17.9 km/h 17.9 km/h 61 % 0 mm 287.0 W/m2 CLR
08:52 -5.9 °C -10.2 °C 34486.4 hPa NW 17.9 km/h 17.9 km/h 61 % 0 mm 246.0 W/m2 CLR
08:57 -5.8 °C -10.3 °C 34476.3 hPa NW 10.3 km/h 10.3 km/h 60 % 0 mm 209.0 W/m2 CLR
09:02 -5.8 °C -10.3 °C 34476.3 hPa NW 17.9 km/h 17.9 km/h 60 % 0 mm 153.0 W/m2 CLR
09:07 -5.8 °C -10.3 °C 34476.3 hPa NW 9 km/h 9 km/h 60 % 0 mm 156.0 W/m2 CLR
09:12 -5.9 °C -10.4 °C 34486.4 hPa NW 10.3 km/h 10.3 km/h 60 % 0 mm 142.0 W/m2 CLR
09:17 -5.9 °C -10.3 °C 34476.3 hPa NW 3.1 km/h 3.1 km/h 61 % 0 mm 153.0 W/m2 CLR
09:22 -5.9 °C -10.3 °C 34476.3 hPa Calm     61 % 0 mm 155.0 W/m2 CLR
09:27 -5.9 °C -10.3 °C 34486.4 hPa Calm     61 % 0 mm 125.0 W/m2 CLR
09:32 -5.9 °C -10.3 °C 34486.4 hPa NW 11.9 km/h 11.9 km/h 61 % 0 mm 167.0 W/m2 CLR
09:37 -5.9 °C -10.2 °C 34476.3 hPa Calm   0.3 km/h 61 % 0 mm 452.0 W/m2 CLR
09:42 -5.7 °C -10.2 °C 34486.4 hPa NNW 15 km/h 15 km/h 60 % 0 mm 455.0 W/m2 CLR
09:47 -5.6 °C -10.1 °C 34476.3 hPa NW 10.3 km/h 10.3 km/h 60 % 0 mm 471.0 W/m2 CLR
09:52 -5.4 °C -10.1 °C 34476.3 hPa NW 10.3 km/h 10.3 km/h 59 % 0 mm 485.0 W/m2 CLR
09:57 -5.3 °C -9.9 °C 34476.3 hPa NNW 26.9 km/h 26.9 km/h 59 % 0 mm 524.0 W/m2 CLR
10:02 -5.2 °C -9.9 °C 34476.3 hPa WNW 11.9 km/h 11.9 km/h 58 % 0 mm 469.0 W/m2 CLR
10:07 -5.1 °C -10.1 °C 34476.3 hPa NW 15 km/h 15 km/h 57 % 0 mm 563.0 W/m2 CLR
10:12 -4.9 °C -10.1 °C 34476.3 hPa WNW 17.9 km/h 17.9 km/h 56 % 0 mm 617.0 W/m2 CLR
10:17 -4.9 °C -10.1 °C 34476.3 hPa NW 15 km/h 15 km/h 56 % 0 mm 506.0 W/m2 CLR
10:22 -4.9 °C -10.3 °C 34476.3 hPa Calm     55 % 0 mm 374.0 W/m2 CLR
10:27 -4.8 °C -10.1 °C 34476.3 hPa North 15 km/h 15 km/h 55 % 0 mm 654.0 W/m2 CLR
10:32 -4.8 °C -10.2 °C 34476.3 hPa NNE 6 km/h 6 km/h 54 % 0 mm 197.0 W/m2 CLR
10:37 -4.8 °C -10.1 °C 34476.3 hPa WNW 15.6 km/h 15.6 km/h 55 % 0 mm 207.0 W/m2 CLR
10:42 -4.9 °C -10.1 °C 34476.3 hPa WNW 17.9 km/h 17.9 km/h 56 % 0 mm 297.0 W/m2 CLR
10:47 -4.8 °C -10 °C 34476.3 hPa NNE 11.9 km/h 11.9 km/h 56 % 0 mm 677.0 W/m2 CLR
10:53 -4.7 °C -9.9 °C 34476.3 hPa NNW 17.9 km/h 17.9 km/h 56 % 0 mm 715.0 W/m2 CLR
10:58 -4.7 °C -10.1 °C 34476.3 hPa NNW 17.9 km/h 17.9 km/h 54 % 0 mm 297.0 W/m2 CLR
11:03 -4.7 °C -10.1 °C 34486.4 hPa NW 15 km/h 15 km/h 54 % 0 mm 257.0 W/m2 CLR
11:05 -4.7 °C -10.1 °C 34486.4 hPa NNW 3.1 km/h   54 % 0 mm 285.0 W/m2 CLR
11:10 -4.6 °C -10.1 °C 34476.3 hPa NW 18.2 km/h 18.2 km/h 54 % 0 mm 357.0 W/m2 CLR
11:15 -4.5 °C -10.1 °C 34486.4 hPa NW 15.6 km/h 15.6 km/h 53 % 0 mm 731.0 W/m2 CLR
11:20 -4.6 °C -10.2 °C 34476.3 hPa West 26.9 km/h 26.9 km/h 53 % 0 mm 469.0 W/m2 CLR
11:22 -4.6 °C -10.2 °C 34476.3 hPa West 15 km/h 15 km/h 53 % 0 mm 814.0 W/m2 CLR
11:27 -4.5 °C -10 °C 34486.4 hPa WNW 20.9 km/h 20.9 km/h 54 % 0 mm 851.0 W/m2 CLR
11:32 -4.4 °C -10.2 °C 34486.4 hPa SW 29.8 km/h 29.8 km/h 52 % 0 mm 278.0 W/m2 CLR
11:37 -4.5 °C -10.2 °C 34476.3 hPa WNW 9 km/h 9 km/h 53 % 0 mm 327.0 W/m2 CLR
11:42 -4.4 °C -10.1 °C 34486.4 hPa NW 23.3 km/h 23.3 km/h 53 % 0 mm 199.0 W/m2 CLR
11:47 -4.3 °C -10.2 °C 34486.4 hPa WNW 28.5 km/h 28.5 km/h 52 % 0 mm 863.0 W/m2 CLR
11:52 -4.2 °C -9.9 °C 34476.3 hPa NW 6 km/h   53 % 0 mm 868.0 W/m2 CLR
11:57 -4.1 °C -9.9 °C 34476.3 hPa NW 20.9 km/h   52 % 0 mm 408.0 W/m2 CLR
12:02 -3.9 °C -9.9 °C 34462.7 hPa West 15.6 km/h 15.6 km/h 51 % 0 mm 940.0 W/m2 CLR
12:07 -3.7 °C -9.9 °C 34462.7 hPa NNW 17.9 km/h 17.9 km/h 50 % 0 mm 983.0 W/m2 CLR
12:12 -3.8 °C -9.9 °C 34486.4 hPa NW 23.8 km/h 23.8 km/h 50 % 0 mm 294.0 W/m2 CLR
12:17 -3.7 °C -9.9 °C 34462.7 hPa NNW 12.9 km/h 12.9 km/h 50 % 0 mm 294.0 W/m2 CLR
12:22 -3.5 °C -9.9 °C 34462.7 hPa NW 15 km/h 15 km/h 49 % 0 mm 940.0 W/m2 CLR
12:27 -3.5 °C -9.9 °C 34462.7 hPa NNE 11.9 km/h 11.9 km/h 49 % 0 mm 942.0 W/m2 CLR
12:32 -3.3 °C -9.8 °C 34462.7 hPa North 29.8 km/h 29.8 km/h 49 % 0 mm 828.0 W/m2 CLR
12:37 -3.3 °C -9.9 °C 34462.7 hPa NNE 6 km/h 7.2 km/h 48 % 0 mm 550.0 W/m2 CLR
12:42 -3.3 °C -9.9 °C 34476.3 hPa North 17.9 km/h 17.9 km/h 48 % 0 mm 258.0 W/m2 CLR
12:47 -3.4 °C -9.8 °C 34462.7 hPa NNE 26.9 km/h 26.9 km/h 49 % 0 mm 868.0 W/m2 CLR
12:52 -3.3 °C -9.9 °C 34462.7 hPa North 26.9 km/h 26.9 km/h 48 % 0 mm 316.0 W/m2 CLR
12:57 -3.3 °C -9.8 °C 34462.7 hPa North 15 km/h 15 km/h 49 % 0 mm 988.0 W/m2 CLR
13:02 -3.2 °C -9.8 °C 34462.7 hPa NNE 20.9 km/h 20.9 km/h 48 % 0 mm 953.0 W/m2 CLR
13:07 -3.1 °C -9.6 °C 34462.7 hPa Calm     49 % 0 mm 868.0 W/m2 CLR
13:12 -2.9 °C -9.6 °C 34462.7 hPa NW 18.2 km/h 18.2 km/h 48 % 0 mm 958.0 W/m2 CLR
13:17 -2.9 °C -9.8 °C 34452.6 hPa Calm     47 % 0 mm 476.0 W/m2 CLR
13:22 -2.8 °C -9.6 °C 34462.7 hPa NE 15 km/h 15 km/h 47 % 0 mm 946.0 W/m2 CLR
13:27 -2.7 °C -9.5 °C 34452.6 hPa Calm     47 % 0 mm 965.0 W/m2 CLR
13:32 -2.6 °C -9.6 °C 34452.6 hPa West 20.9 km/h 20.9 km/h 46 % 0 mm 930.0 W/m2 CLR
13:37 -2.6 °C -9.6 °C 34452.6 hPa West 3.1 km/h 7.2 km/h 46 % 0 mm 944.0 W/m2 CLR
13:42 -2.4 °C -9.5 °C 34452.6 hPa West 15 km/h 15 km/h 46 % 0 mm 940.0 W/m2 CLR
13:47 -2.3 °C -9.6 °C 34452.6 hPa Calm     45 % 0 mm 949.0 W/m2 CLR
13:52 -2.2 °C -9.4 °C 34442.4 hPa Calm     45 % 0 mm 930.0 W/m2 CLR
13:57 -2.1 °C -9.6 °C 34442.4 hPa Calm     44 % 0 mm 946.0 W/m2 CLR
14:02 -1.9 °C -9.2 °C 34442.4 hPa Calm     45 % 0 mm 939.0 W/m2 CLR
14:07 -1.9 °C -9.6 °C 34428.8 hPa NE 15 km/h 15 km/h 43 % 0 mm 928.0 W/m2 CLR
14:12 -2 °C -9.4 °C 34428.8 hPa North 9 km/h 9 km/h 44 % 0 mm 926.0 W/m2 CLR
14:17 -1.9 °C -9.3 °C 34428.8 hPa Calm     44 % 0 mm 944.0 W/m2 CLR
14:22 -1.8 °C -9.5 °C 34428.8 hPa Calm     43 % 0 mm 923.0 W/m2 CLR
14:27 -1.8 °C -9.4 °C 34428.8 hPa Calm     43 % 0 mm 909.0 W/m2 CLR
14:32 -1.7 °C -9.4 °C 34418.7 hPa Calm     43 % 0 mm 953.0 W/m2 CLR
14:37 -1.7 °C -9.3 °C 34418.7 hPa Calm     43 % 0 mm 918.0 W/m2 CLR
14:42 -1.5 °C -9.2 °C 34418.7 hPa Calm     43 % 0 mm 895.0 W/m2 CLR
14:43 -1.5 °C -9.2 °C 34418.7 hPa Calm     43 % 0 mm 893.0 W/m2 CLR
14:48 -1.4 °C -9.2 °C 34418.7 hPa ESE 2.6 km/h   43 % 0 mm 900.0 W/m2 CLR
14:53 -1.4 °C -9.1 °C 34418.7 hPa NNE 11.9 km/h 11.9 km/h 43 % 0 mm 884.0 W/m2 CLR
14:58 -1.2 °C -9.3 °C 34405.1 hPa NNE 15.6 km/h 15.6 km/h 41 % 0 mm 879.0 W/m2 CLR
15:03 -1.1 °C -9.3 °C 34405.1 hPa ENE 15 km/h 15 km/h 41 % 0 mm 879.0 W/m2 CLR
15:08 -1.2 °C -9.3 °C 34405.1 hPa ENE 15 km/h 15 km/h 41 % 0 mm 870.0 W/m2 CLR
15:13 -1.2 °C -9.3 °C 34405.1 hPa NE 17.9 km/h 17.9 km/h 41 % 0 mm 868.0 W/m2 CLR
15:18 -1 °C -9.2 °C 34405.1 hPa East 20.8 km/h 20.8 km/h 41 % 0 mm 867.0 W/m2 CLR
15:23 -1 °C -9.2 °C 34405.1 hPa NNW 17.9 km/h 17.9 km/h 41 % 0 mm 856.0 W/m2 CLR
15:28 -0.8 °C -9.2 °C 34395 hPa North 12.9 km/h 12.9 km/h 40 % 0 mm 851.0 W/m2 CLR
15:33 -0.7 °C -9.3 °C 34395 hPa North 11.9 km/h 11.9 km/h 39 % 0 mm 847.0 W/m2 CLR
15:38 -0.6 °C -9.1 °C 34395 hPa Calm     40 % 0 mm 833.0 W/m2 CLR
15:43 -0.5 °C -9.2 °C 34395 hPa ENE 9 km/h 9 km/h 39 % 0 mm 831.0 W/m2 CLR
15:48 -0.4 °C -9.1 °C 34384.8 hPa Calm     39 % 0 mm 824.0 W/m2 CLR
15:53 -0.2 °C -9.2 °C 34384.8 hPa NE 17.9 km/h 17.9 km/h 38 % 0 mm 816.0 W/m2 CLR
15:58 -0.3 °C -9.2 °C 34384.8 hPa SE 3.1 km/h 3.1 km/h 38 % 0 mm 807.0 W/m2 CLR
16:03 -0.2 °C -8.9 °C 34384.8 hPa NNE 3.1 km/h 3.1 km/h 39 % 0 mm 800.0 W/m2 CLR
16:06 -0.2 °C -9.1 °C 34384.8 hPa NNE 11.9 km/h   38 % 0 mm 791.0 W/m2 CLR
16:08 -0.1 °C -9.1 °C 34384.8 hPa ENE 9 km/h 9 km/h 38 % 0 mm 789.0 W/m2 CLR
16:13 0 °C -9.2 °C 34384.8 hPa Calm     37 % 0 mm 779.0 W/m2 CLR
16:18 -0.1 °C -9.2 °C 34371.3 hPa Calm     37 % 0 mm 772.0 W/m2 CLR
16:23 -0.1 °C -9.2 °C 34371.3 hPa Calm     37 % 0 mm 763.0 W/m2 CLR
16:28 0.1 °C -9.1 °C 34371.3 hPa North 20.8 km/h 20.8 km/h 37 % 0 mm 749.0 W/m2 CLR
16:33 0.1 °C -9.1 °C 34371.3 hPa NE 23.8 km/h 23.8 km/h 37 % 0 mm 740.0 W/m2 CLR
16:38 0.1 °C -9.1 °C 34371.3 hPa North 15 km/h 15 km/h 37 % 0 mm 729.0 W/m2 CLR
16:43 0.3 °C -8.9 °C 34361.1 hPa NW 17.9 km/h 17.9 km/h 37 % 0 mm 717.0 W/m2 CLR
16:48 0.4 °C -8.8 °C 34361.1 hPa NW 26.9 km/h 26.9 km/h 37 % 0 mm 707.0 W/m2 CLR
16:53 0.4 °C -9.1 °C 34361.1 hPa Calm     36 % 0 mm 701.0 W/m2 CLR
16:58 0.4 °C -9.1 °C 34361.1 hPa North 17.9 km/h 17.9 km/h 36 % 0 mm 689.0 W/m2 CLR
17:03 0.4 °C -9.1 °C 34361.1 hPa North 26.9 km/h 26.9 km/h 36 % 0 mm 677.0 W/m2 CLR
17:08 0.4 °C -9.1 °C 34361.1 hPa Calm     36 % 0 mm 661.0 W/m2 CLR
17:13 0.6 °C -8.9 °C 34347.6 hPa NE 6 km/h 6 km/h 36 % 0 mm 649.0 W/m2 CLR
17:18 0.6 °C -8.8 °C 34361.1 hPa Calm   1.3 km/h 36 % 0 mm 633.0 W/m2 CLR
17:23 0.7 °C -9.3 °C 34347.6 hPa NNE 20.9 km/h 20.9 km/h 34 % 0 mm 624.0 W/m2 CLR
17:28 0.6 °C -9.3 °C 34347.6 hPa NNE 20.9 km/h 20.9 km/h 34 % 0 mm 615.0 W/m2 CLR
17:33 0.4 °C -9.3 °C 34347.6 hPa ENE 18.2 km/h 18.2 km/h 35 % 0 mm 598.0 W/m2 CLR
17:38 0.3 °C -9.1 °C 34347.6 hPa NNW 12.9 km/h 12.9 km/h 36 % 0 mm 587.0 W/m2 CLR
17:43 0.5 °C -9.2 °C 34347.6 hPa NW 17.9 km/h 17.9 km/h 35 % 0 mm 575.0 W/m2 CLR
17:48 0.5 °C -9.2 °C 34347.6 hPa NW 3.1 km/h 3.1 km/h 35 % 0 mm 557.0 W/m2 CLR
17:53 0.7 °C -9.3 °C 34347.6 hPa NNW 9 km/h 9 km/h 34 % 0 mm 543.0 W/m2 CLR
17:58 0.7 °C -9.6 °C 34347.6 hPa NNW 25.9 km/h 25.9 km/h 33 % 0 mm 531.0 W/m2 CLR
18:03 0.4 °C -9.5 °C 34337.4 hPa North 17.9 km/h 17.9 km/h 34 % 0 mm 519.0 W/m2 CLR
18:08 0.4 °C -9.6 °C 34337.4 hPa Calm     34 % 0 mm 504.0 W/m2 CLR
18:13 0.5 °C -9.5 °C 34337.4 hPa North 17.9 km/h 17.9 km/h 34 % 0 mm 487.0 W/m2 CLR
18:18 0.5 °C -9.7 °C 34337.4 hPa NNE 20.9 km/h 20.9 km/h 33 % 0 mm 475.0 W/m2 CLR
18:23 0.4 °C -9.8 °C 34337.4 hPa North 29.8 km/h 29.8 km/h 33 % 0 mm 457.0 W/m2 CLR
18:28 0.4 °C -9.8 °C 34337.4 hPa NNE 20.9 km/h 20.9 km/h 33 % 0 mm 446.0 W/m2 CLR
18:33 0.4 °C -9.8 °C 34337.4 hPa NE 23.8 km/h 23.8 km/h 33 % 0 mm 427.0 W/m2 CLR
18:38 0.4 °C -9.8 °C 34337.4 hPa NE 17.9 km/h 17.9 km/h 33 % 0 mm 413.0 W/m2 CLR
18:43 0.4 °C -9.8 °C 34327.3 hPa NNE 5.1 km/h 6 km/h 33 % 0 mm 399.0 W/m2 CLR
18:48 0.5 °C -9.9 °C 34337.4 hPa NNW 17.9 km/h 17.9 km/h 32 % 0 mm 383.0 W/m2 CLR
18:53 0.4 °C -10.1 °C 34327.3 hPa NNE 15.6 km/h 15.6 km/h 32 % 0 mm 366.0 W/m2 CLR
18:58 0.4 °C -10.1 °C 34337.4 hPa NNE 17.9 km/h 17.9 km/h 32 % 0 mm 348.0 W/m2 CLR
19:03 0.4 °C -10.1 °C 34337.4 hPa NNE 20.9 km/h 20.9 km/h 32 % 0 mm 332.0 W/m2 CLR
19:09 0.4 °C -10.1 °C 34337.4 hPa NNE 23.8 km/h 23.8 km/h 32 % 0 mm 318.0 W/m2 CLR
19:14 0.3 °C -10.1 °C 34337.4 hPa NNW 17.9 km/h 17.9 km/h 32 % 0 mm 304.0 W/m2 CLR
19:19 0.3 °C -10.2 °C 34337.4 hPa North 15 km/h 15 km/h 32 % 0 mm 290.0 W/m2 CLR
19:24 0.2 °C -10.2 °C 34337.4 hPa North 23.8 km/h 23.8 km/h 32 % 0 mm 272.0 W/m2 CLR
19:29 0.2 °C -9.9 °C 34337.4 hPa NNW 9 km/h 9 km/h 33 % 0 mm 258.0 W/m2 CLR
19:34 0.3 °C -9.9 °C 34337.4 hPa North 9 km/h 17.5 km/h 33 % 0 mm 244.0 W/m2 CLR
19:39 0.2 °C -10.1 °C 34337.4 hPa NE 20.9 km/h 20.9 km/h 33 % 0 mm 230.0 W/m2 CLR
19:44 0.1 °C -9.8 °C 34337.4 hPa North 15 km/h 15 km/h 34 % 0 mm 213.0 W/m2 CLR
19:49 0.1 °C -10.1 °C 34337.4 hPa North 17.9 km/h 17.9 km/h 33 % 0 mm 199.0 W/m2 CLR
19:54 0.1 °C -9.8 °C 34337.4 hPa NNW 17.9 km/h 17.9 km/h 34 % 0 mm 183.0 W/m2 CLR
19:59 0 °C -9.9 °C 34337.4 hPa NNW 2.6 km/h   34 % 0 mm 171.0 W/m2 CLR
20:04 -0.1 °C -10.2 °C 34337.4 hPa NNW 20.9 km/h 20.9 km/h 33 % 0 mm 153.0 W/m2 CLR
20:09 -0.1 °C -10 °C 34337.4 hPa NNE 20.9 km/h 20.9 km/h 34 % 0 mm 137.0 W/m2 CLR
20:14 -0.2 °C -10.1 °C 34337.4 hPa NNW 6 km/h 6 km/h 34 % 0 mm 123.0 W/m2 CLR
20:19 -0.2 °C -10.1 °C 34347.6 hPa NNE 9 km/h 9 km/h 34 % 0 mm 111.0 W/m2 CLR
20:24 -0.3 °C -10.2 °C 34347.6 hPa NNW 11.9 km/h 11.9 km/h 34 % 0 mm 98.0 W/m2 CLR
20:29 -0.3 °C -10.2 °C 34347.6 hPa North 11.9 km/h 11.9 km/h 34 % 0 mm 84.0 W/m2 CLR
20:34 -0.4 °C -10.2 °C 34347.6 hPa Calm     34 % 0 mm 74.0 W/m2 FEW
20:39 -0.4 °C -10.3 °C 34347.6 hPa North 17.9 km/h 17.9 km/h 34 % 0 mm 65.0 W/m2 FEW
20:44 -0.6 °C -10.4 °C 34347.6 hPa North 18.2 km/h 18.2 km/h 34 % 0 mm 56.0 W/m2 SCT
20:49 -0.7 °C -10.4 °C 34347.6 hPa NNE 17.9 km/h 17.9 km/h 34 % 0 mm 44.0 W/m2 SCT
20:54 -0.7 °C -10.5 °C 34347.6 hPa Calm     34 % 0 mm 39.0 W/m2 BKN
20:59 -0.8 °C -10.3 °C 34347.6 hPa Calm     35 % 0 mm 32.0 W/m2 BKN
21:04 -0.8 °C -10.1 °C 34347.6 hPa Calm     36 % 0 mm 26.0 W/m2 BKN
21:09 -0.9 °C -10.4 °C 34347.6 hPa Calm     35 % 0 mm 21.0 W/m2 BKN
21:14 -1 °C -10.3 °C 34347.6 hPa Calm     36 % 0 mm 18.0 W/m2 BKN
21:19 -1.1 °C -10.4 °C 34361.1 hPa Calm     36 % 0 mm 12.0 W/m2 BKN
21:24 -1.2 °C -10.2 °C 34361.1 hPa Calm     37 % 0 mm 9.0 W/m2 BKN
21:29 -1.3 °C -10.3 °C 34361.1 hPa Calm     37 % 0 mm 7.0 W/m2 BKN
21:34 -1.4 °C -10.2 °C 34361.1 hPa Calm     38 % 0 mm 0.0 W/m2 OVC
21:39 -1.5 °C -10.1 °C 34361.1 hPa Calm     39 % 0 mm 0.0 W/m2 OVC
21:44 -1.6 °C -10.2 °C 34361.1 hPa Calm     39 % 0 mm 0.0 W/m2 CLR
21:49 -1.8 °C -10.1 °C 34361.1 hPa Calm     40 % 0 mm 0.0 W/m2 CLR
21:54 -1.9 °C -10.2 °C 34361.1 hPa Calm     40 % 0 mm 0.0 W/m2 CLR
21:59 -2.1 °C -9.9 °C 34361.1 hPa Calm     42 % 0 mm 0.0 W/m2 CLR
22:04 -2.3 °C -10.1 °C 34361.1 hPa NW 6 km/h 6 km/h 42 % 0 mm 0.0 W/m2 CLR
22:09 -2.4 °C -10.2 °C 34371.3 hPa WNW 20.9 km/h 20.9 km/h 42 % 0 mm 0.0 W/m2 CLR
22:14 -2.3 °C -10.2 °C 34371.3 hPa NNW 11.9 km/h 11.9 km/h 42 % 0 mm 0.0 W/m2 CLR
22:19 -2.4 °C -10.2 °C 34371.3 hPa NW 9 km/h 9 km/h 42 % 0 mm 0.0 W/m2 CLR
22:24 -2.6 °C -10.3 °C 34384.8 hPa NW 9 km/h 9 km/h 42 % 0 mm 0.0 W/m2 CLR
22:29 -2.6 °C -10.8 °C 34384.8 hPa NW 29.8 km/h 29.8 km/h 40 % 0 mm 0.0 W/m2 CLR
22:34 -2.4 °C -10.8 °C 34384.8 hPa NW 17.9 km/h 17.9 km/h 39 % 0 mm 0.0 W/m2 CLR
22:39 -2.4 °C -11.1 °C 34395 hPa NNW 11.9 km/h 11.9 km/h 38 % 0 mm 0.0 W/m2 CLR
22:44 -2.4 °C -11.3 °C 34395 hPa NW 9 km/h 9 km/h 37 % 0 mm 0.0 W/m2 CLR
22:49 -2.6 °C -11.4 °C 34395 hPa NNW 11.9 km/h 11.9 km/h 37 % 0 mm 0.0 W/m2 CLR
22:54 -2.7 °C -11.3 °C 34395 hPa NW 25.9 km/h 25.9 km/h 38 % 0 mm 0.0 W/m2 CLR
22:59 -2.8 °C -11.4 °C 34405.1 hPa WNW 23.8 km/h 23.8 km/h 38 % 0 mm 0.0 W/m2 CLR
23:04 -2.9 °C -11.3 °C 34405.1 hPa NNW 36.2 km/h 36.2 km/h 39 % 0 mm 0.0 W/m2 CLR
23:09 -3.1 °C -11.4 °C 34418.7 hPa NNW 20.9 km/h 20.9 km/h 39 % 0 mm 0.0 W/m2 CLR
23:14 -3.2 °C -11.3 °C 34418.7 hPa NW 3.1 km/h 3.1 km/h 40 % 0 mm 0.0 W/m2 CLR
23:19 -3.3 °C -11.4 °C 34418.7 hPa WNW 15 km/h   40 % 0 mm 0.0 W/m2 CLR
23:24 -3.4 °C -11.3 °C 34428.8 hPa Calm     41 % 0 mm 0.0 W/m2 CLR
23:29 -3.5 °C -11.2 °C 34428.8 hPa NNW 9 km/h   42 % 0 mm 0.0 W/m2 CLR
23:34 -3.6 °C -11.3 °C 34428.8 hPa WNW 6 km/h 6 km/h 42 % 0 mm 0.0 W/m2 CLR
23:39 -3.6 °C -11.3 °C 34428.8 hPa Calm     42 % 0 mm 0.0 W/m2 CLR
23:44 -3.7 °C -11.3 °C 34428.8 hPa WNW 10.3 km/h   42 % 0 mm 0.0 W/m2 CLR
23:49 -3.8 °C -11.3 °C 34442.4 hPa NNW 11.9 km/h 11.9 km/h 43 % 0 mm 0.0 W/m2 CLR
23:54 -3.9 °C -11.3 °C 34442.4 hPa Calm     43 % 0 mm 0.0 W/m2 CLR
23:59 -4 °C -11.3 °C 34442.4 hPa Calm     44 % 0 mm 0.0 W/m2 CLR
Lo Temps de Massalio
Compliments of Weather Underground - 1.25 mb